KBUR/BUR METAR and TAF weather

Enter ICAO airport designator
Station Type Date Time Source
KBUR METAR 2021/07/30 05:53 UTC NOAA

KBUR 300553Z 13008KT 10SM CLR 20/14 A2991 RMK AO2 SLP115 T02000144 10317 20200 51017 $


Station Type Date Time Source
KBUR Decoded METAR 2021/07/30 05:53 UTC NOAA

BURBANK-GLENDALE-PASADENA, CA, United States (KBUR) 34-12N 118-22W 217M
Jul 30, 2021 - 01:53 AM EDT / 2021.07.30 0553 UTC
Wind: from the SE (130 degrees) at 9 MPH (8 KT):0
Visibility: 10 mile(s):0
Sky conditions: clear
Temperature: 68.0 F (20.0 C)
Dew Point: 57.9 F (14.4 C)
Relative Humidity: 70%
Pressure (altimeter): 29.91 in. Hg (1012 hPa)
Pressure tendency: 0.05 inches (1.7 hPa) higher than three hours ago
ob: KBUR 300553Z 13008KT 10SM CLR 20/14 A2991 RMK AO2 SLP115 T02000144 10317 20200 51017
cycle: 6

Station Type Date Time Source
KBUR TAF 2021/07/30 06:39 UTC NOAA

TAF KBUR 300537Z 3006/3106 13007KT P6SM SKC
FM301300 VRB03KT P6SM SKC
FM302000 18009KT P6SM SKC
FM310400 14006KT P6SM SKC

Example: see airport list